sensor_id;sensor_type;location;lat;lon;timestamp;P1;durP1;ratioP1;P2;durP2;ratioP2
14118;SDS011;7138;49.246;9.100;2023-10-13T00:01:20;12.90;;;8.07;;
14118;SDS011;7138;49.246;9.100;2023-10-13T00:03:46;17.63;;;8.52;;
14118;SDS011;7138;49.246;9.100;2023-10-13T00:06:12;14.60;;;7.70;;
14118;SDS011;7138;49.246;9.100;2023-10-13T00:08:38;13.15;;;7.60;;
14118;SDS011;7138;49.246;9.100;2023-10-13T00:11:05;16.85;;;8.45;;
14118;SDS011;7138;49.246;9.100;2023-10-13T00:13:31;13.52;;;7.78;;
14118;SDS011;7138;49.246;9.100;2023-10-13T00:16:08;12.52;;;8.55;;
14118;SDS011;7138;49.246;9.100;2023-10-13T00:18:35;15.20;;;7.95;;
14118;SDS011;7138;49.246;9.100;2023-10-13T00:21:07;11.15;;;7.13;;
14118;SDS011;7138;49.246;9.100;2023-10-13T00:23:53;13.52;;;7.90;;
14118;SDS011;7138;49.246;9.100;2023-10-13T00:26:19;13.45;;;7.25;;
14118;SDS011;7138;49.246;9.100;2023-10-13T00:28:49;14.82;;;7.22;;
14118;SDS011;7138;49.246;9.100;2023-10-13T00:31:25;11.43;;;7.28;;
14118;SDS011;7138;49.246;9.100;2023-10-13T00:33:57;15.68;;;7.60;;
14118;SDS011;7138;49.246;9.100;2023-10-13T00:36:26;13.38;;;7.78;;
14118;SDS011;7138;49.246;9.100;2023-10-13T00:38:52;12.98;;;7.35;;
14118;SDS011;7138;49.246;9.100;2023-10-13T00:41:21;13.25;;;7.75;;
14118;SDS011;7138;49.246;9.100;2023-10-13T00:44:07;13.13;;;7.15;;
14118;SDS011;7138;49.246;9.100;2023-10-13T00:46:35;12.70;;;7.88;;
14118;SDS011;7138;49.246;9.100;2023-10-13T00:49:04;14.43;;;8.32;;
14118;SDS011;7138;49.246;9.100;2023-10-13T00:51:33;15.73;;;8.05;;
14118;SDS011;7138;49.246;9.100;2023-10-13T00:54:03;11.95;;;7.72;;
14118;SDS011;7138;49.246;9.100;2023-10-13T00:56:37;14.15;;;7.65;;
14118;SDS011;7138;49.246;9.100;2023-10-13T00:59:34;14.93;;;7.72;;
14118;SDS011;7138;49.246;9.100;2023-10-13T01:02:02;15.45;;;8.05;;
14118;SDS011;7138;49.246;9.100;2023-10-13T01:04:54;12.32;;;7.80;;
14118;SDS011;7138;49.246;9.100;2023-10-13T01:07:20;13.00;;;7.72;;
14118;SDS011;7138;49.246;9.100;2023-10-13T01:09:47;16.10;;;7.72;;
14118;SDS011;7138;49.246;9.100;2023-10-13T01:12:13;14.95;;;8.80;;
14118;SDS011;7138;49.246;9.100;2023-10-13T01:14:39;13.80;;;8.30;;
14118;SDS011;7138;49.246;9.100;2023-10-13T01:17:07;17.90;;;8.60;;
14118;SDS011;7138;49.246;9.100;2023-10-13T01:19:35;11.40;;;8.18;;
14118;SDS011;7138;49.246;9.100;2023-10-13T01:22:07;14.25;;;8.02;;
14118;SDS011;7138;49.246;9.100;2023-10-13T01:24:35;14.20;;;8.02;;
14118;SDS011;7138;49.246;9.100;2023-10-13T01:27:01;16.83;;;8.73;;
14118;SDS011;7138;49.246;9.100;2023-10-13T01:29:42;14.98;;;8.93;;
14118;SDS011;7138;49.246;9.100;2023-10-13T01:32:12;17.20;;;8.45;;
14118;SDS011;7138;49.246;9.100;2023-10-13T01:34:39;15.52;;;9.10;;
14118;SDS011;7138;49.246;9.100;2023-10-13T01:37:05;16.33;;;9.23;;
14118;SDS011;7138;49.246;9.100;2023-10-13T01:39:31;15.32;;;8.82;;
14118;SDS011;7138;49.246;9.100;2023-10-13T01:41:58;15.00;;;9.38;;
14118;SDS011;7138;49.246;9.100;2023-10-13T01:44:25;18.92;;;8.90;;
14118;SDS011;7138;49.246;9.100;2023-10-13T01:46:58;14.30;;;8.57;;
14118;SDS011;7138;49.246;9.100;2023-10-13T01:49:31;15.48;;;9.00;;
14118;SDS011;7138;49.246;9.100;2023-10-13T01:52:06;18.38;;;9.05;;
14118;SDS011;7138;49.246;9.100;2023-10-13T01:54:33;14.25;;;8.43;;
14118;SDS011;7138;49.246;9.100;2023-10-13T01:57:00;14.82;;;8.75;;
14118;SDS011;7138;49.246;9.100;2023-10-13T01:59:28;12.43;;;8.10;;
14118;SDS011;7138;49.246;9.100;2023-10-13T02:01:55;13.32;;;8.43;;
14118;SDS011;7138;49.246;9.100;2023-10-13T02:04:25;16.58;;;8.35;;
14118;SDS011;7138;49.246;9.100;2023-10-13T02:06:52;14.30;;;8.82;;
14118;SDS011;7138;49.246;9.100;2023-10-13T02:09:18;14.73;;;8.95;;
14118;SDS011;7138;49.246;9.100;2023-10-13T02:11:54;13.70;;;8.77;;
14118;SDS011;7138;49.246;9.100;2023-10-13T02:14:23;20.15;;;8.88;;
14118;SDS011;7138;49.246;9.100;2023-10-13T02:16:50;14.50;;;9.27;;
14118;SDS011;7138;49.246;9.100;2023-10-13T02:21:46;14.02;;;8.23;;
14118;SDS011;7138;49.246;9.100;2023-10-13T02:24:23;14.55;;;8.25;;
14118;SDS011;7138;49.246;9.100;2023-10-13T02:26:54;15.35;;;8.80;;
14118;SDS011;7138;49.246;9.100;2023-10-13T02:29:29;13.32;;;8.55;;
14118;SDS011;7138;49.246;9.100;2023-10-13T02:31:54;15.10;;;8.82;;
14118;SDS011;7138;49.246;9.100;2023-10-13T02:34:20;14.77;;;8.75;;
14118;SDS011;7138;49.246;9.100;2023-10-13T02:36:49;14.10;;;8.27;;
14118;SDS011;7138;49.246;9.100;2023-10-13T02:39:15;15.30;;;9.07;;
14118;SDS011;7138;49.246;9.100;2023-10-13T02:41:41;13.75;;;9.25;;
14118;SDS011;7138;49.246;9.100;2023-10-13T02:44:13;18.38;;;10.13;;
14118;SDS011;7138;49.246;9.100;2023-10-13T02:46:57;28.15;;;9.65;;
14118;SDS011;7138;49.246;9.100;2023-10-13T02:49:24;38.22;;;8.73;;
14118;SDS011;7138;49.246;9.100;2023-10-13T02:51:51;40.40;;;9.35;;
14118;SDS011;7138;49.246;9.100;2023-10-13T02:54:18;35.88;;;8.48;;
14118;SDS011;7138;49.246;9.100;2023-10-13T02:56:44;13.15;;;8.23;;
14118;SDS011;7138;49.246;9.100;2023-10-13T02:59:22;13.68;;;8.65;;
14118;SDS011;7138;49.246;9.100;2023-10-13T03:02:00;12.63;;;8.05;;
14118;SDS011;7138;49.246;9.100;2023-10-13T03:04:32;17.40;;;8.73;;
14118;SDS011;7138;49.246;9.100;2023-10-13T03:06:58;12.85;;;7.25;;
14118;SDS011;7138;49.246;9.100;2023-10-13T03:09:25;12.70;;;7.40;;
14118;SDS011;7138;49.246;9.100;2023-10-13T03:11:50;12.38;;;8.10;;
14118;SDS011;7138;49.246;9.100;2023-10-13T03:14:17;20.88;;;8.65;;
14118;SDS011;7138;49.246;9.100;2023-10-13T03:16:51;13.05;;;8.38;;
14118;SDS011;7138;49.246;9.100;2023-10-13T03:19:19;15.38;;;9.15;;
14118;SDS011;7138;49.246;9.100;2023-10-13T03:21:46;12.32;;;8.55;;
14118;SDS011;7138;49.246;9.100;2023-10-13T03:24:20;16.77;;;9.70;;
14118;SDS011;7138;49.246;9.100;2023-10-13T03:26:58;24.55;;;8.82;;
14118;SDS011;7138;49.246;9.100;2023-10-13T03:29:24;17.73;;;9.73;;
14118;SDS011;7138;49.246;9.100;2023-10-13T03:31:55;15.77;;;9.25;;
14118;SDS011;7138;49.246;9.100;2023-10-13T03:34:33;13.90;;;8.95;;
14118;SDS011;7138;49.246;9.100;2023-10-13T03:37:00;16.70;;;9.10;;
14118;SDS011;7138;49.246;9.100;2023-10-13T03:39:35;11.98;;;8.50;;
14118;SDS011;7138;49.246;9.100;2023-10-13T03:42:01;14.32;;;8.65;;
14118;SDS011;7138;49.246;9.100;2023-10-13T03:44:30;11.43;;;7.85;;
14118;SDS011;7138;49.246;9.100;2023-10-13T03:46:56;13.77;;;8.18;;
14118;SDS011;7138;49.246;9.100;2023-10-13T03:49:35;12.20;;;7.95;;
14118;SDS011;7138;49.246;9.100;2023-10-13T03:52:02;13.80;;;7.93;;
14118;SDS011;7138;49.246;9.100;2023-10-13T03:54:30;11.50;;;7.68;;
14118;SDS011;7138;49.246;9.100;2023-10-13T03:56:59;10.97;;;6.97;;
14118;SDS011;7138;49.246;9.100;2023-10-13T03:59:30;11.77;;;7.90;;
14118;SDS011;7138;49.246;9.100;2023-10-13T04:04:28;14.55;;;6.95;;
14118;SDS011;7138;49.246;9.100;2023-10-13T04:07:10;13.57;;;7.40;;
14118;SDS011;7138;49.246;9.100;2023-10-13T04:09:36;12.63;;;7.82;;
14118;SDS011;7138;49.246;9.100;2023-10-13T04:12:12;14.27;;;7.85;;
14118;SDS011;7138;49.246;9.100;2023-10-13T04:14:39;12.82;;;7.63;;
14118;SDS011;7138;49.246;9.100;2023-10-13T04:17:25;12.57;;;7.63;;
14118;SDS011;7138;49.246;9.100;2023-10-13T04:19:52;13.55;;;8.02;;
14118;SDS011;7138;49.246;9.100;2023-10-13T04:22:33;13.10;;;7.90;;
14118;SDS011;7138;49.246;9.100;2023-10-13T04:25:13;12.95;;;7.82;;
14118;SDS011;7138;49.246;9.100;2023-10-13T04:28:00;11.73;;;7.53;;
14118;SDS011;7138;49.246;9.100;2023-10-13T04:30:41;13.38;;;7.93;;
14118;SDS011;7138;49.246;9.100;2023-10-13T04:33:20;12.80;;;7.95;;
14118;SDS011;7138;49.246;9.100;2023-10-13T04:36:00;13.32;;;7.82;;
14118;SDS011;7138;49.246;9.100;2023-10-13T04:38:40;11.95;;;7.22;;
14118;SDS011;7138;49.246;9.100;2023-10-13T04:41:21;10.20;;;7.25;;
14118;SDS011;7138;49.246;9.100;2023-10-13T04:43:49;13.88;;;8.05;;
14118;SDS011;7138;49.246;9.100;2023-10-13T04:46:23;11.82;;;7.63;;
14118;SDS011;7138;49.246;9.100;2023-10-13T04:49:05;17.38;;;8.35;;
14118;SDS011;7138;49.246;9.100;2023-10-13T04:51:52;12.60;;;8.20;;
14118;SDS011;7138;49.246;9.100;2023-10-13T04:54:39;15.57;;;8.38;;
14118;SDS011;7138;49.246;9.100;2023-10-13T04:57:13;14.18;;;7.95;;
14118;SDS011;7138;49.246;9.100;2023-10-13T04:59:59;16.33;;;8.55;;
14118;SDS011;7138;49.246;9.100;2023-10-13T05:02:36;12.07;;;7.90;;
14118;SDS011;7138;49.246;9.100;2023-10-13T05:05:07;11.45;;;7.90;;
14118;SDS011;7138;49.246;9.100;2023-10-13T05:07:44;12.38;;;8.43;;
14118;SDS011;7138;49.246;9.100;2023-10-13T05:10:30;12.35;;;8.30;;
14118;SDS011;7138;49.246;9.100;2023-10-13T05:13:16;11.27;;;6.90;;
14118;SDS011;7138;49.246;9.100;2023-10-13T05:16:01;13.60;;;6.88;;
14118;SDS011;7138;49.246;9.100;2023-10-13T05:18:45;13.75;;;7.32;;
14118;SDS011;7138;49.246;9.100;2023-10-13T05:21:37;12.73;;;6.93;;
14118;SDS011;7138;49.246;9.100;2023-10-13T05:24:22;11.77;;;6.60;;
14118;SDS011;7138;49.246;9.100;2023-10-13T05:27:08;12.32;;;7.00;;
14118;SDS011;7138;49.246;9.100;2023-10-13T05:29:52;14.60;;;7.10;;
14118;SDS011;7138;49.246;9.100;2023-10-13T05:32:37;11.30;;;6.55;;
14118;SDS011;7138;49.246;9.100;2023-10-13T05:35:22;12.02;;;6.43;;
14118;SDS011;7138;49.246;9.100;2023-10-13T05:38:07;10.45;;;6.97;;
14118;SDS011;7138;49.246;9.100;2023-10-13T05:40:52;10.27;;;6.30;;
14118;SDS011;7138;49.246;9.100;2023-10-13T05:43:38;11.68;;;6.90;;
14118;SDS011;7138;49.246;9.100;2023-10-13T05:46:24;9.95;;;6.18;;
14118;SDS011;7138;49.246;9.100;2023-10-13T05:48:50;11.68;;;6.60;;
14118;SDS011;7138;49.246;9.100;2023-10-13T05:51:22;11.23;;;7.00;;
14118;SDS011;7138;49.246;9.100;2023-10-13T05:53:58;11.75;;;7.65;;
14118;SDS011;7138;49.246;9.100;2023-10-13T05:56:38;14.38;;;7.05;;
14118;SDS011;7138;49.246;9.100;2023-10-13T05:59:24;10.18;;;6.88;;
14118;SDS011;7138;49.246;9.100;2023-10-13T06:02:09;10.68;;;6.75;;
14118;SDS011;7138;49.246;9.100;2023-10-13T06:04:53;10.75;;;7.03;;
14118;SDS011;7138;49.246;9.100;2023-10-13T06:07:38;10.68;;;6.40;;
14118;SDS011;7138;49.246;9.100;2023-10-13T06:10:23;10.88;;;6.53;;
14118;SDS011;7138;49.246;9.100;2023-10-13T06:13:07;12.82;;;6.32;;
14118;SDS011;7138;49.246;9.100;2023-10-13T06:15:53;11.95;;;6.93;;
14118;SDS011;7138;49.246;9.100;2023-10-13T06:18:38;12.32;;;6.80;;
14118;SDS011;7138;49.246;9.100;2023-10-13T06:21:22;12.20;;;6.80;;
14118;SDS011;7138;49.246;9.100;2023-10-13T06:24:07;8.77;;;5.65;;
14118;SDS011;7138;49.246;9.100;2023-10-13T06:26:52;9.90;;;6.10;;
14118;SDS011;7138;49.246;9.100;2023-10-13T06:29:36;12.20;;;6.47;;
14118;SDS011;7138;49.246;9.100;2023-10-13T06:32:03;9.23;;;5.95;;
14118;SDS011;7138;49.246;9.100;2023-10-13T06:34:35;10.75;;;6.13;;
14118;SDS011;7138;49.246;9.100;2023-10-13T06:37:09;11.57;;;6.18;;
14118;SDS011;7138;49.246;9.100;2023-10-13T06:39:49;9.73;;;6.63;;
14118;SDS011;7138;49.246;9.100;2023-10-13T06:42:15;10.35;;;6.53;;
14118;SDS011;7138;49.246;9.100;2023-10-13T06:44:43;10.95;;;5.93;;
14118;SDS011;7138;49.246;9.100;2023-10-13T06:47:14;10.97;;;5.43;;
14118;SDS011;7138;49.246;9.100;2023-10-13T06:49:40;9.82;;;5.25;;
14118;SDS011;7138;49.246;9.100;2023-10-13T06:52:08;10.85;;;5.38;;
14118;SDS011;7138;49.246;9.100;2023-10-13T06:54:35;9.80;;;5.90;;
14118;SDS011;7138;49.246;9.100;2023-10-13T06:57:02;13.30;;;6.18;;
14118;SDS011;7138;49.246;9.100;2023-10-13T06:59:39;13.02;;;5.90;;
14118;SDS011;7138;49.246;9.100;2023-10-13T07:02:05;9.80;;;5.10;;
14118;SDS011;7138;49.246;9.100;2023-10-13T07:04:35;13.60;;;4.93;;
14118;SDS011;7138;49.246;9.100;2023-10-13T07:07:04;11.23;;;4.72;;
14118;SDS011;7138;49.246;9.100;2023-10-13T07:09:35;9.10;;;4.68;;
14118;SDS011;7138;49.246;9.100;2023-10-13T07:12:01;8.88;;;5.32;;
14118;SDS011;7138;49.246;9.100;2023-10-13T07:14:29;9.00;;;5.60;;
14118;SDS011;7138;49.246;9.100;2023-10-13T07:17:00;10.23;;;5.13;;
14118;SDS011;7138;49.246;9.100;2023-10-13T07:19:29;11.05;;;5.13;;
14118;SDS011;7138;49.246;9.100;2023-10-13T07:21:57;9.63;;;5.05;;
14118;SDS011;7138;49.246;9.100;2023-10-13T07:24:25;8.90;;;5.18;;
14118;SDS011;7138;49.246;9.100;2023-10-13T07:26:52;15.48;;;5.53;;
14118;SDS011;7138;49.246;9.100;2023-10-13T07:29:27;8.18;;;4.28;;
14118;SDS011;7138;49.246;9.100;2023-10-13T07:31:54;9.13;;;4.63;;
14118;SDS011;7138;49.246;9.100;2023-10-13T07:34:19;8.52;;;4.18;;
14118;SDS011;7138;49.246;9.100;2023-10-13T07:36:52;8.20;;;3.90;;
14118;SDS011;7138;49.246;9.100;2023-10-13T07:39:25;8.75;;;4.30;;
14118;SDS011;7138;49.246;9.100;2023-10-13T07:41:53;9.95;;;4.88;;
14118;SDS011;7138;49.246;9.100;2023-10-13T07:44:20;11.70;;;4.25;;
14118;SDS011;7138;49.246;9.100;2023-10-13T07:46:50;9.77;;;4.07;;
14118;SDS011;7138;49.246;9.100;2023-10-13T07:49:26;10.20;;;3.67;;
14118;SDS011;7138;49.246;9.100;2023-10-13T07:51:57;9.60;;;3.88;;
14118;SDS011;7138;49.246;9.100;2023-10-13T07:54:29;8.23;;;4.00;;
14118;SDS011;7138;49.246;9.100;2023-10-13T07:56:55;6.75;;;3.63;;
14118;SDS011;7138;49.246;9.100;2023-10-13T07:59:21;7.63;;;4.15;;
14118;SDS011;7138;49.246;9.100;2023-10-13T08:01:48;8.45;;;3.58;;
14118;SDS011;7138;49.246;9.100;2023-10-13T08:04:34;7.97;;;3.67;;
14118;SDS011;7138;49.246;9.100;2023-10-13T08:07:02;8.65;;;3.83;;
14118;SDS011;7138;49.246;9.100;2023-10-13T08:09:39;10.75;;;3.40;;
14118;SDS011;7138;49.246;9.100;2023-10-13T08:12:16;12.15;;;3.97;;
14118;SDS011;7138;49.246;9.100;2023-10-13T08:17:12;9.35;;;3.92;;
14118;SDS011;7138;49.246;9.100;2023-10-13T08:19:38;10.18;;;4.22;;
14118;SDS011;7138;49.246;9.100;2023-10-13T08:22:05;8.43;;;3.63;;
14118;SDS011;7138;49.246;9.100;2023-10-13T08:24:45;8.30;;;3.72;;
14118;SDS011;7138;49.246;9.100;2023-10-13T08:27:12;7.25;;;3.13;;
14118;SDS011;7138;49.246;9.100;2023-10-13T08:29:40;7.93;;;3.25;;
14118;SDS011;7138;49.246;9.100;2023-10-13T08:32:21;6.70;;;3.13;;
14118;SDS011;7138;49.246;9.100;2023-10-13T08:34:51;7.35;;;3.03;;
14118;SDS011;7138;49.246;9.100;2023-10-13T08:37:17;10.95;;;3.67;;
14118;SDS011;7138;49.246;9.100;2023-10-13T08:39:48;13.13;;;4.07;;
14118;SDS011;7138;49.246;9.100;2023-10-13T08:42:43;8.45;;;3.10;;
14118;SDS011;7138;49.246;9.100;2023-10-13T08:45:10;6.95;;;2.92;;
14118;SDS011;7138;49.246;9.100;2023-10-13T08:47:54;9.85;;;3.13;;
14118;SDS011;7138;49.246;9.100;2023-10-13T08:50:38;7.68;;;3.60;;
14118;SDS011;7138;49.246;9.100;2023-10-13T08:53:15;9.98;;;3.30;;
14118;SDS011;7138;49.246;9.100;2023-10-13T08:56:03;7.75;;;3.03;;
14118;SDS011;7138;49.246;9.100;2023-10-13T08:58:34;8.02;;;3.50;;
14118;SDS011;7138;49.246;9.100;2023-10-13T09:01:20;9.30;;;3.33;;
14118;SDS011;7138;49.246;9.100;2023-10-13T09:03:57;7.70;;;3.33;;
14118;SDS011;7138;49.246;9.100;2023-10-13T09:06:43;8.35;;;3.20;;
14118;SDS011;7138;49.246;9.100;2023-10-13T09:09:30;9.48;;;3.00;;
14118;SDS011;7138;49.246;9.100;2023-10-13T09:12:11;8.75;;;3.42;;
14118;SDS011;7138;49.246;9.100;2023-10-13T09:14:39;7.65;;;3.63;;
14118;SDS011;7138;49.246;9.100;2023-10-13T09:17:22;10.60;;;2.95;;
14118;SDS011;7138;49.246;9.100;2023-10-13T09:19:59;10.57;;;3.10;;
14118;SDS011;7138;49.246;9.100;2023-10-13T09:22:44;9.10;;;3.00;;
14118;SDS011;7138;49.246;9.100;2023-10-13T09:25:29;8.20;;;2.80;;
14118;SDS011;7138;49.246;9.100;2023-10-13T09:28:00;9.75;;;2.90;;
14118;SDS011;7138;49.246;9.100;2023-10-13T09:30:27;9.30;;;3.28;;
14118;SDS011;7138;49.246;9.100;2023-10-13T09:32:59;6.65;;;2.90;;
14118;SDS011;7138;49.246;9.100;2023-10-13T09:35:33;10.50;;;3.45;;
14118;SDS011;7138;49.246;9.100;2023-10-13T09:38:02;10.65;;;3.30;;
14118;SDS011;7138;49.246;9.100;2023-10-13T09:40:29;11.60;;;3.30;;
14118;SDS011;7138;49.246;9.100;2023-10-13T09:43:12;10.60;;;3.03;;
14118;SDS011;7138;49.246;9.100;2023-10-13T09:45:43;11.95;;;2.90;;
14118;SDS011;7138;49.246;9.100;2023-10-13T09:48:33;6.40;;;2.75;;
14118;SDS011;7138;49.246;9.100;2023-10-13T09:51:06;14.45;;;3.45;;
14118;SDS011;7138;49.246;9.100;2023-10-13T09:53:38;10.95;;;3.10;;
14118;SDS011;7138;49.246;9.100;2023-10-13T09:56:20;12.10;;;2.90;;
14118;SDS011;7138;49.246;9.100;2023-10-13T09:58:55;6.15;;;2.65;;
14118;SDS011;7138;49.246;9.100;2023-10-13T10:01:33;9.73;;;2.85;;
14118;SDS011;7138;49.246;9.100;2023-10-13T10:04:15;8.60;;;2.60;;
14118;SDS011;7138;49.246;9.100;2023-10-13T10:06:51;6.93;;;2.93;;
14118;SDS011;7138;49.246;9.100;2023-10-13T10:09:17;7.68;;;2.80;;
14118;SDS011;7138;49.246;9.100;2023-10-13T10:11:48;6.47;;;2.45;;
14118;SDS011;7138;49.246;9.100;2023-10-13T10:14:40;8.45;;;2.72;;
14118;SDS011;7138;49.246;9.100;2023-10-13T10:17:26;8.90;;;2.65;;
14118;SDS011;7138;49.246;9.100;2023-10-13T10:19:55;8.18;;;2.60;;
14118;SDS011;7138;49.246;9.100;2023-10-13T10:25:09;8.32;;;2.42;;
14118;SDS011;7138;49.246;9.100;2023-10-13T10:27:54;8.13;;;2.72;;
14118;SDS011;7138;49.246;9.100;2023-10-13T10:30:25;12.25;;;3.05;;
14118;SDS011;7138;49.246;9.100;2023-10-13T10:32:54;9.80;;;2.63;;
14118;SDS011;7138;49.246;9.100;2023-10-13T10:35:24;8.10;;;3.22;;
14118;SDS011;7138;49.246;9.100;2023-10-13T10:38:07;5.90;;;3.00;;
14118;SDS011;7138;49.246;9.100;2023-10-13T10:40:48;9.85;;;2.67;;
14118;SDS011;7138;49.246;9.100;2023-10-13T10:43:22;7.95;;;2.47;;
14118;SDS011;7138;49.246;9.100;2023-10-13T10:45:52;9.40;;;2.70;;
14118;SDS011;7138;49.246;9.100;2023-10-13T10:48:24;6.05;;;2.60;;
14118;SDS011;7138;49.246;9.100;2023-10-13T10:50:58;6.47;;;2.63;;
14118;SDS011;7138;49.246;9.100;2023-10-13T10:53:31;9.40;;;2.72;;
14118;SDS011;7138;49.246;9.100;2023-10-13T10:56:05;6.78;;;2.40;;
14118;SDS011;7138;49.246;9.100;2023-10-13T10:58:45;11.32;;;2.53;;
14118;SDS011;7138;49.246;9.100;2023-10-13T11:01:12;8.60;;;2.75;;
14118;SDS011;7138;49.246;9.100;2023-10-13T11:03:55;8.65;;;2.70;;
14118;SDS011;7138;49.246;9.100;2023-10-13T11:06:24;8.95;;;3.13;;
14118;SDS011;7138;49.246;9.100;2023-10-13T11:09:00;6.63;;;2.53;;
14118;SDS011;7138;49.246;9.100;2023-10-13T11:11:29;9.07;;;2.78;;
14118;SDS011;7138;49.246;9.100;2023-10-13T11:14:00;7.72;;;2.63;;
14118;SDS011;7138;49.246;9.100;2023-10-13T11:16:46;9.55;;;2.83;;
14118;SDS011;7138;49.246;9.100;2023-10-13T11:19:19;8.48;;;2.45;;
14118;SDS011;7138;49.246;9.100;2023-10-13T11:21:46;7.60;;;2.58;;
14118;SDS011;7138;49.246;9.100;2023-10-13T11:24:12;11.80;;;2.35;;
14118;SDS011;7138;49.246;9.100;2023-10-13T11:26:38;8.40;;;2.70;;
14118;SDS011;7138;49.246;9.100;2023-10-13T11:29:17;8.25;;;2.50;;
14118;SDS011;7138;49.246;9.100;2023-10-13T11:31:46;7.35;;;3.03;;
14118;SDS011;7138;49.246;9.100;2023-10-13T11:34:22;8.93;;;2.63;;
14118;SDS011;7138;49.246;9.100;2023-10-13T11:36:48;7.97;;;2.40;;
14118;SDS011;7138;49.246;9.100;2023-10-13T11:39:14;5.45;;;2.58;;
14118;SDS011;7138;49.246;9.100;2023-10-13T11:41:49;5.97;;;2.85;;
14118;SDS011;7138;49.246;9.100;2023-10-13T11:44:19;8.52;;;2.80;;
14118;SDS011;7138;49.246;9.100;2023-10-13T11:46:47;5.30;;;2.58;;
14118;SDS011;7138;49.246;9.100;2023-10-13T11:49:13;6.85;;;2.67;;
14118;SDS011;7138;49.246;9.100;2023-10-13T11:51:43;5.78;;;2.13;;
14118;SDS011;7138;49.246;9.100;2023-10-13T11:54:11;10.02;;;2.97;;
14118;SDS011;7138;49.246;9.100;2023-10-13T11:56:37;6.85;;;2.60;;
14118;SDS011;7138;49.246;9.100;2023-10-13T11:59:04;8.00;;;2.50;;
14118;SDS011;7138;49.246;9.100;2023-10-13T12:01:30;8.35;;;2.80;;
14118;SDS011;7138;49.246;9.100;2023-10-13T12:04:17;6.68;;;2.40;;
14118;SDS011;7138;49.246;9.100;2023-10-13T12:07:01;13.80;;;2.60;;
14118;SDS011;7138;49.246;9.100;2023-10-13T12:09:47;7.55;;;2.70;;
14118;SDS011;7138;49.246;9.100;2023-10-13T12:12:20;11.25;;;2.35;;
14118;SDS011;7138;49.246;9.100;2023-10-13T12:14:47;7.38;;;2.92;;
14118;SDS011;7138;49.246;9.100;2023-10-13T12:17:25;7.53;;;2.47;;
14118;SDS011;7138;49.246;9.100;2023-10-13T12:19:57;5.88;;;2.50;;
14118;SDS011;7138;49.246;9.100;2023-10-13T12:22:24;4.97;;;2.03;;
14118;SDS011;7138;49.246;9.100;2023-10-13T12:24:53;8.27;;;2.50;;
14118;SDS011;7138;49.246;9.100;2023-10-13T12:27:19;6.93;;;2.70;;
14118;SDS011;7138;49.246;9.100;2023-10-13T12:29:48;9.43;;;2.40;;
14118;SDS011;7138;49.246;9.100;2023-10-13T12:32:17;10.88;;;2.28;;
14118;SDS011;7138;49.246;9.100;2023-10-13T12:34:47;9.27;;;2.38;;
14118;SDS011;7138;49.246;9.100;2023-10-13T12:37:42;6.28;;;2.03;;
14118;SDS011;7138;49.246;9.100;2023-10-13T12:40:09;6.63;;;2.55;;
14118;SDS011;7138;49.246;9.100;2023-10-13T12:42:56;6.93;;;2.53;;
14118;SDS011;7138;49.246;9.100;2023-10-13T12:45:41;7.30;;;1.95;;
14118;SDS011;7138;49.246;9.100;2023-10-13T12:48:26;8.10;;;2.50;;
14118;SDS011;7138;49.246;9.100;2023-10-13T12:51:11;4.25;;;1.95;;
14118;SDS011;7138;49.246;9.100;2023-10-13T12:53:57;6.80;;;2.45;;
14118;SDS011;7138;49.246;9.100;2023-10-13T12:56:29;7.53;;;2.38;;
14118;SDS011;7138;49.246;9.100;2023-10-13T12:58:55;8.25;;;2.45;;
14118;SDS011;7138;49.246;9.100;2023-10-13T13:01:22;7.05;;;2.40;;
14118;SDS011;7138;49.246;9.100;2023-10-13T13:03:52;8.10;;;2.33;;
14118;SDS011;7138;49.246;9.100;2023-10-13T13:06:22;8.20;;;2.53;;
14118;SDS011;7138;49.246;9.100;2023-10-13T13:08:50;5.40;;;2.27;;
14118;SDS011;7138;49.246;9.100;2023-10-13T13:11:17;7.28;;;1.85;;
14118;SDS011;7138;49.246;9.100;2023-10-13T13:13:44;6.45;;;2.42;;
14118;SDS011;7138;49.246;9.100;2023-10-13T13:16:12;7.78;;;2.50;;
14118;SDS011;7138;49.246;9.100;2023-10-13T13:18:38;8.02;;;2.05;;
14118;SDS011;7138;49.246;9.100;2023-10-13T13:21:04;6.22;;;2.45;;
14118;SDS011;7138;49.246;9.100;2023-10-13T13:23:37;8.48;;;2.78;;
14118;SDS011;7138;49.246;9.100;2023-10-13T13:26:05;11.35;;;3.50;;
14118;SDS011;7138;49.246;9.100;2023-10-13T13:28:42;6.32;;;1.98;;
14118;SDS011;7138;49.246;9.100;2023-10-13T13:31:08;5.88;;;2.10;;
14118;SDS011;7138;49.246;9.100;2023-10-13T13:33:35;7.20;;;2.13;;
14118;SDS011;7138;49.246;9.100;2023-10-13T13:36:07;4.32;;;2.08;;
14118;SDS011;7138;49.246;9.100;2023-10-13T13:38:38;23.17;;;3.30;;
14118;SDS011;7138;49.246;9.100;2023-10-13T13:41:05;5.97;;;1.98;;
14118;SDS011;7138;49.246;9.100;2023-10-13T13:43:41;5.88;;;2.15;;
14118;SDS011;7138;49.246;9.100;2023-10-13T13:46:15;7.47;;;1.90;;
14118;SDS011;7138;49.246;9.100;2023-10-13T13:48:42;8.68;;;2.60;;
14118;SDS011;7138;49.246;9.100;2023-10-13T13:51:08;6.05;;;2.10;;
14118;SDS011;7138;49.246;9.100;2023-10-13T13:53:40;6.82;;;2.20;;
14118;SDS011;7138;49.246;9.100;2023-10-13T13:56:15;8.93;;;2.25;;
14118;SDS011;7138;49.246;9.100;2023-10-13T13:58:43;5.13;;;2.05;;
14118;SDS011;7138;49.246;9.100;2023-10-13T14:01:09;6.55;;;2.10;;
14118;SDS011;7138;49.246;9.100;2023-10-13T14:03:46;8.00;;;2.05;;
14118;SDS011;7138;49.246;9.100;2023-10-13T14:06:15;8.47;;;2.40;;
14118;SDS011;7138;49.246;9.100;2023-10-13T14:08:43;6.55;;;2.08;;
14118;SDS011;7138;49.246;9.100;2023-10-13T14:11:13;5.10;;;2.30;;
14118;SDS011;7138;49.246;9.100;2023-10-13T14:14:01;8.77;;;2.47;;
14118;SDS011;7138;49.246;9.100;2023-10-13T14:16:37;5.50;;;2.03;;
14118;SDS011;7138;49.246;9.100;2023-10-13T14:19:03;8.50;;;2.67;;
14118;SDS011;7138;49.246;9.100;2023-10-13T14:21:32;8.63;;;2.50;;
14118;SDS011;7138;49.246;9.100;2023-10-13T14:24:00;5.75;;;2.13;;
14118;SDS011;7138;49.246;9.100;2023-10-13T14:26:27;5.60;;;2.20;;
14118;SDS011;7138;49.246;9.100;2023-10-13T14:28:53;7.80;;;2.10;;
14118;SDS011;7138;49.246;9.100;2023-10-13T14:31:40;8.07;;;2.10;;
14118;SDS011;7138;49.246;9.100;2023-10-13T14:34:06;5.35;;;2.08;;
14118;SDS011;7138;49.246;9.100;2023-10-13T14:36:32;8.23;;;2.47;;
14118;SDS011;7138;49.246;9.100;2023-10-13T14:39:01;6.47;;;1.97;;
14118;SDS011;7138;49.246;9.100;2023-10-13T14:41:34;8.52;;;1.95;;
14118;SDS011;7138;49.246;9.100;2023-10-13T14:44:00;6.53;;;2.00;;
14118;SDS011;7138;49.246;9.100;2023-10-13T14:46:30;5.75;;;1.80;;
14118;SDS011;7138;49.246;9.100;2023-10-13T14:48:57;5.00;;;1.98;;
14118;SDS011;7138;49.246;9.100;2023-10-13T14:51:27;9.18;;;2.53;;
14118;SDS011;7138;49.246;9.100;2023-10-13T14:53:54;5.97;;;1.95;;
14118;SDS011;7138;49.246;9.100;2023-10-13T14:56:25;5.72;;;1.92;;
14118;SDS011;7138;49.246;9.100;2023-10-13T14:58:52;6.30;;;2.20;;
14118;SDS011;7138;49.246;9.100;2023-10-13T15:01:20;7.82;;;2.20;;
14118;SDS011;7138;49.246;9.100;2023-10-13T15:03:48;9.02;;;2.25;;
14118;SDS011;7138;49.246;9.100;2023-10-13T15:06:25;6.22;;;2.10;;
14118;SDS011;7138;49.246;9.100;2023-10-13T15:08:56;8.65;;;2.15;;
14118;SDS011;7138;49.246;9.100;2023-10-13T15:11:24;8.65;;;2.42;;
14118;SDS011;7138;49.246;9.100;2023-10-13T15:13:52;6.47;;;1.80;;
14118;SDS011;7138;49.246;9.100;2023-10-13T15:16:21;6.72;;;1.92;;
14118;SDS011;7138;49.246;9.100;2023-10-13T15:18:49;7.55;;;2.00;;
14118;SDS011;7138;49.246;9.100;2023-10-13T15:21:20;6.93;;;2.15;;
14118;SDS011;7138;49.246;9.100;2023-10-13T15:23:49;4.63;;;1.70;;
14118;SDS011;7138;49.246;9.100;2023-10-13T15:26:16;10.23;;;2.33;;
14118;SDS011;7138;49.246;9.100;2023-10-13T15:28:42;6.68;;;1.85;;
14118;SDS011;7138;49.246;9.100;2023-10-13T15:31:28;6.45;;;2.20;;
14118;SDS011;7138;49.246;9.100;2023-10-13T15:33:57;6.25;;;1.98;;
14118;SDS011;7138;49.246;9.100;2023-10-13T15:36:23;7.15;;;1.98;;
14118;SDS011;7138;49.246;9.100;2023-10-13T15:38:52;9.38;;;2.20;;
14118;SDS011;7138;49.246;9.100;2023-10-13T15:41:22;6.65;;;2.30;;